sensor_id;sensor_type;location;lat;lon;timestamp;P1;durP1;ratioP1;P2;durP2;ratioP2
15132;SDS011;7667;51.232;17.110;2024-03-22T00:02:19;11.33;;;8.43;;
15132;SDS011;7667;51.232;17.110;2024-03-22T00:04:45;11.57;;;8.53;;
15132;SDS011;7667;51.232;17.110;2024-03-22T00:07:13;11.27;;;8.77;;
15132;SDS011;7667;51.232;17.110;2024-03-22T00:09:39;11.77;;;8.57;;
15132;SDS011;7667;51.232;17.110;2024-03-22T00:12:07;11.30;;;7.83;;
15132;SDS011;7667;51.232;17.110;2024-03-22T00:14:34;9.73;;;7.27;;
15132;SDS011;7667;51.232;17.110;2024-03-22T00:17:01;10.97;;;7.30;;
15132;SDS011;7667;51.232;17.110;2024-03-22T00:19:28;9.67;;;7.60;;
15132;SDS011;7667;51.232;17.110;2024-03-22T00:21:55;10.93;;;8.13;;
15132;SDS011;7667;51.232;17.110;2024-03-22T00:24:22;7.90;;;6.73;;
15132;SDS011;7667;51.232;17.110;2024-03-22T00:26:50;8.93;;;7.10;;
15132;SDS011;7667;51.232;17.110;2024-03-22T00:29:16;9.33;;;7.27;;
15132;SDS011;7667;51.232;17.110;2024-03-22T00:31:43;9.17;;;7.27;;
15132;SDS011;7667;51.232;17.110;2024-03-22T00:34:10;9.47;;;7.03;;
15132;SDS011;7667;51.232;17.110;2024-03-22T00:36:38;6.93;;;5.97;;
15132;SDS011;7667;51.232;17.110;2024-03-22T00:39:05;8.53;;;6.17;;
15132;SDS011;7667;51.232;17.110;2024-03-22T00:41:32;8.50;;;5.40;;
15132;SDS011;7667;51.232;17.110;2024-03-22T00:43:59;7.93;;;5.47;;
15132;SDS011;7667;51.232;17.110;2024-03-22T00:46:26;8.97;;;6.77;;
15132;SDS011;7667;51.232;17.110;2024-03-22T00:48:53;8.13;;;5.37;;
15132;SDS011;7667;51.232;17.110;2024-03-22T00:51:20;9.03;;;6.20;;
15132;SDS011;7667;51.232;17.110;2024-03-22T00:53:48;7.37;;;4.97;;
15132;SDS011;7667;51.232;17.110;2024-03-22T00:56:15;6.80;;;4.53;;
15132;SDS011;7667;51.232;17.110;2024-03-22T00:58:41;8.60;;;4.00;;
15132;SDS011;7667;51.232;17.110;2024-03-22T01:01:08;6.60;;;3.93;;
15132;SDS011;7667;51.232;17.110;2024-03-22T01:03:35;6.93;;;4.13;;
15132;SDS011;7667;51.232;17.110;2024-03-22T01:06:02;6.80;;;4.20;;
15132;SDS011;7667;51.232;17.110;2024-03-22T01:08:29;8.33;;;4.87;;
15132;SDS011;7667;51.232;17.110;2024-03-22T01:10:56;6.33;;;4.17;;
15132;SDS011;7667;51.232;17.110;2024-03-22T01:13:23;8.67;;;5.70;;
15132;SDS011;7667;51.232;17.110;2024-03-22T01:15:49;8.87;;;5.73;;
15132;SDS011;7667;51.232;17.110;2024-03-22T01:18:17;8.10;;;5.27;;
15132;SDS011;7667;51.232;17.110;2024-03-22T01:20:44;8.10;;;5.40;;
15132;SDS011;7667;51.232;17.110;2024-03-22T01:23:11;8.27;;;5.60;;
15132;SDS011;7667;51.232;17.110;2024-03-22T01:25:38;8.90;;;5.80;;
15132;SDS011;7667;51.232;17.110;2024-03-22T01:28:05;9.60;;;6.07;;
15132;SDS011;7667;51.232;17.110;2024-03-22T01:30:34;8.17;;;5.90;;
15132;SDS011;7667;51.232;17.110;2024-03-22T01:33:03;9.67;;;6.57;;
15132;SDS011;7667;51.232;17.110;2024-03-22T01:35:29;10.47;;;6.63;;
15132;SDS011;7667;51.232;17.110;2024-03-22T01:37:56;9.97;;;7.07;;
15132;SDS011;7667;51.232;17.110;2024-03-22T01:40:24;10.80;;;6.80;;
15132;SDS011;7667;51.232;17.110;2024-03-22T01:42:57;9.10;;;6.47;;
15132;SDS011;7667;51.232;17.110;2024-03-22T01:45:24;9.50;;;6.67;;
15132;SDS011;7667;51.232;17.110;2024-03-22T01:47:54;10.10;;;6.93;;
15132;SDS011;7667;51.232;17.110;2024-03-22T01:50:23;10.20;;;6.57;;
15132;SDS011;7667;51.232;17.110;2024-03-22T01:52:50;8.57;;;6.33;;
15132;SDS011;7667;51.232;17.110;2024-03-22T01:55:18;9.30;;;6.63;;
15132;SDS011;7667;51.232;17.110;2024-03-22T01:57:44;10.10;;;6.63;;
15132;SDS011;7667;51.232;17.110;2024-03-22T02:00:12;9.50;;;6.50;;
15132;SDS011;7667;51.232;17.110;2024-03-22T02:02:39;7.57;;;6.03;;
15132;SDS011;7667;51.232;17.110;2024-03-22T02:05:16;8.53;;;6.40;;
15132;SDS011;7667;51.232;17.110;2024-03-22T02:07:47;8.70;;;6.23;;
15132;SDS011;7667;51.232;17.110;2024-03-22T02:10:14;8.97;;;6.33;;
15132;SDS011;7667;51.232;17.110;2024-03-22T02:12:42;8.23;;;5.80;;
15132;SDS011;7667;51.232;17.110;2024-03-22T02:15:09;8.87;;;6.17;;
15132;SDS011;7667;51.232;17.110;2024-03-22T02:17:37;10.20;;;5.80;;
15132;SDS011;7667;51.232;17.110;2024-03-22T02:20:04;8.27;;;5.83;;
15132;SDS011;7667;51.232;17.110;2024-03-22T02:22:32;8.13;;;5.93;;
15132;SDS011;7667;51.232;17.110;2024-03-22T02:24:59;8.20;;;6.20;;
15132;SDS011;7667;51.232;17.110;2024-03-22T02:27:25;8.10;;;5.83;;
15132;SDS011;7667;51.232;17.110;2024-03-22T02:29:53;8.90;;;6.23;;
15132;SDS011;7667;51.232;17.110;2024-03-22T02:32:20;7.97;;;5.97;;
15132;SDS011;7667;51.232;17.110;2024-03-22T02:34:47;8.37;;;6.17;;
15132;SDS011;7667;51.232;17.110;2024-03-22T02:37:13;9.33;;;6.60;;
15132;SDS011;7667;51.232;17.110;2024-03-22T02:39:40;8.93;;;6.33;;
15132;SDS011;7667;51.232;17.110;2024-03-22T02:42:08;9.80;;;6.60;;
15132;SDS011;7667;51.232;17.110;2024-03-22T02:44:35;7.97;;;5.90;;
15132;SDS011;7667;51.232;17.110;2024-03-22T02:47:08;8.67;;;6.00;;
15132;SDS011;7667;51.232;17.110;2024-03-22T02:49:37;10.17;;;6.43;;
15132;SDS011;7667;51.232;17.110;2024-03-22T02:52:04;8.30;;;5.90;;
15132;SDS011;7667;51.232;17.110;2024-03-22T02:54:31;7.80;;;5.93;;
15132;SDS011;7667;51.232;17.110;2024-03-22T02:56:58;10.00;;;6.83;;
15132;SDS011;7667;51.232;17.110;2024-03-22T02:59:27;8.90;;;6.33;;
15132;SDS011;7667;51.232;17.110;2024-03-22T03:01:54;8.60;;;6.53;;
15132;SDS011;7667;51.232;17.110;2024-03-22T03:04:21;9.43;;;7.03;;
15132;SDS011;7667;51.232;17.110;2024-03-22T03:06:48;8.70;;;6.33;;
15132;SDS011;7667;51.232;17.110;2024-03-22T03:09:15;9.30;;;6.77;;
15132;SDS011;7667;51.232;17.110;2024-03-22T03:11:42;9.90;;;6.77;;
15132;SDS011;7667;51.232;17.110;2024-03-22T03:14:09;9.70;;;6.60;;
15132;SDS011;7667;51.232;17.110;2024-03-22T03:16:39;10.03;;;6.63;;
15132;SDS011;7667;51.232;17.110;2024-03-22T03:19:08;10.37;;;7.03;;
15132;SDS011;7667;51.232;17.110;2024-03-22T03:21:35;9.43;;;6.70;;
15132;SDS011;7667;51.232;17.110;2024-03-22T03:24:02;9.77;;;6.70;;
15132;SDS011;7667;51.232;17.110;2024-03-22T03:26:29;9.23;;;6.83;;
15132;SDS011;7667;51.232;17.110;2024-03-22T03:28:56;8.90;;;6.77;;
15132;SDS011;7667;51.232;17.110;2024-03-22T03:31:22;9.67;;;7.23;;
15132;SDS011;7667;51.232;17.110;2024-03-22T03:33:49;10.73;;;7.30;;
15132;SDS011;7667;51.232;17.110;2024-03-22T03:36:16;10.50;;;7.53;;
15132;SDS011;7667;51.232;17.110;2024-03-22T03:38:43;10.43;;;7.67;;
15132;SDS011;7667;51.232;17.110;2024-03-22T03:41:10;11.67;;;7.30;;
15132;SDS011;7667;51.232;17.110;2024-03-22T03:43:37;9.73;;;6.90;;
15132;SDS011;7667;51.232;17.110;2024-03-22T03:46:04;10.40;;;7.13;;
15132;SDS011;7667;51.232;17.110;2024-03-22T03:48:31;9.20;;;6.93;;
15132;SDS011;7667;51.232;17.110;2024-03-22T03:50:58;9.83;;;7.10;;
15132;SDS011;7667;51.232;17.110;2024-03-22T03:53:29;10.13;;;7.30;;
15132;SDS011;7667;51.232;17.110;2024-03-22T03:55:56;10.30;;;7.30;;
15132;SDS011;7667;51.232;17.110;2024-03-22T03:58:23;10.07;;;7.43;;
15132;SDS011;7667;51.232;17.110;2024-03-22T04:00:50;11.23;;;7.50;;
15132;SDS011;7667;51.232;17.110;2024-03-22T04:03:17;10.30;;;8.27;;
15132;SDS011;7667;51.232;17.110;2024-03-22T04:05:44;10.70;;;8.03;;
15132;SDS011;7667;51.232;17.110;2024-03-22T04:08:11;11.13;;;7.90;;
15132;SDS011;7667;51.232;17.110;2024-03-22T04:10:38;12.07;;;7.80;;
15132;SDS011;7667;51.232;17.110;2024-03-22T04:13:05;10.03;;;8.10;;
15132;SDS011;7667;51.232;17.110;2024-03-22T04:15:35;10.57;;;7.57;;
15132;SDS011;7667;51.232;17.110;2024-03-22T04:18:02;10.67;;;7.77;;
15132;SDS011;7667;51.232;17.110;2024-03-22T04:20:29;11.63;;;8.23;;
15132;SDS011;7667;51.232;17.110;2024-03-22T04:22:56;11.03;;;7.87;;
15132;SDS011;7667;51.232;17.110;2024-03-22T04:25:23;12.10;;;7.73;;
15132;SDS011;7667;51.232;17.110;2024-03-22T04:27:50;11.30;;;7.70;;
15132;SDS011;7667;51.232;17.110;2024-03-22T04:30:17;10.60;;;7.70;;
15132;SDS011;7667;51.232;17.110;2024-03-22T04:32:45;12.17;;;8.60;;
15132;SDS011;7667;51.232;17.110;2024-03-22T04:35:13;11.73;;;7.57;;
15132;SDS011;7667;51.232;17.110;2024-03-22T04:37:40;10.27;;;7.77;;
15132;SDS011;7667;51.232;17.110;2024-03-22T04:40:07;11.20;;;7.80;;
15132;SDS011;7667;51.232;17.110;2024-03-22T04:42:38;12.53;;;8.43;;
15132;SDS011;7667;51.232;17.110;2024-03-22T04:45:12;15.97;;;10.70;;
15132;SDS011;7667;51.232;17.110;2024-03-22T04:47:39;10.23;;;7.13;;
15132;SDS011;7667;51.232;17.110;2024-03-22T04:50:06;10.30;;;7.60;;
15132;SDS011;7667;51.232;17.110;2024-03-22T04:52:35;11.03;;;7.27;;
15132;SDS011;7667;51.232;17.110;2024-03-22T04:55:02;10.07;;;7.70;;
15132;SDS011;7667;51.232;17.110;2024-03-22T04:57:29;10.13;;;7.63;;
15132;SDS011;7667;51.232;17.110;2024-03-22T04:59:56;11.43;;;7.70;;
15132;SDS011;7667;51.232;17.110;2024-03-22T05:02:23;12.43;;;8.23;;
15132;SDS011;7667;51.232;17.110;2024-03-22T05:04:50;10.87;;;7.87;;
15132;SDS011;7667;51.232;17.110;2024-03-22T05:07:17;11.73;;;8.70;;
15132;SDS011;7667;51.232;17.110;2024-03-22T05:09:44;10.90;;;7.93;;
15132;SDS011;7667;51.232;17.110;2024-03-22T05:12:10;10.07;;;6.97;;
15132;SDS011;7667;51.232;17.110;2024-03-22T05:14:37;10.63;;;7.77;;
15132;SDS011;7667;51.232;17.110;2024-03-22T05:17:04;10.83;;;7.43;;
15132;SDS011;7667;51.232;17.110;2024-03-22T05:19:31;11.37;;;7.40;;
15132;SDS011;7667;51.232;17.110;2024-03-22T05:21:59;10.97;;;7.83;;
15132;SDS011;7667;51.232;17.110;2024-03-22T05:24:26;11.77;;;7.33;;
15132;SDS011;7667;51.232;17.110;2024-03-22T05:26:53;11.03;;;7.90;;
15132;SDS011;7667;51.232;17.110;2024-03-22T05:29:20;11.57;;;8.53;;
15132;SDS011;7667;51.232;17.110;2024-03-22T05:31:50;11.00;;;7.27;;
15132;SDS011;7667;51.232;17.110;2024-03-22T05:34:18;11.27;;;7.60;;
15132;SDS011;7667;51.232;17.110;2024-03-22T05:36:45;10.37;;;6.63;;
15132;SDS011;7667;51.232;17.110;2024-03-22T05:39:12;9.97;;;7.27;;
15132;SDS011;7667;51.232;17.110;2024-03-22T05:41:39;10.70;;;7.93;;
15132;SDS011;7667;51.232;17.110;2024-03-22T05:44:07;10.43;;;7.13;;
15132;SDS011;7667;51.232;17.110;2024-03-22T05:46:34;10.67;;;7.27;;
15132;SDS011;7667;51.232;17.110;2024-03-22T05:49:01;11.73;;;7.83;;
15132;SDS011;7667;51.232;17.110;2024-03-22T05:51:28;9.73;;;7.10;;
15132;SDS011;7667;51.232;17.110;2024-03-22T05:53:58;10.43;;;6.93;;
15132;SDS011;7667;51.232;17.110;2024-03-22T05:56:25;10.00;;;7.03;;
15132;SDS011;7667;51.232;17.110;2024-03-22T05:58:52;8.80;;;6.23;;
15132;SDS011;7667;51.232;17.110;2024-03-22T06:01:19;11.10;;;7.27;;
15132;SDS011;7667;51.232;17.110;2024-03-22T06:03:46;9.73;;;6.97;;
15132;SDS011;7667;51.232;17.110;2024-03-22T06:06:12;9.70;;;7.33;;
15132;SDS011;7667;51.232;17.110;2024-03-22T06:08:40;11.50;;;8.30;;
15132;SDS011;7667;51.232;17.110;2024-03-22T06:11:09;11.10;;;7.90;;
15132;SDS011;7667;51.232;17.110;2024-03-22T06:13:36;11.27;;;8.00;;
15132;SDS011;7667;51.232;17.110;2024-03-22T06:16:02;11.87;;;7.90;;
15132;SDS011;7667;51.232;17.110;2024-03-22T06:18:30;12.73;;;8.40;;
15132;SDS011;7667;51.232;17.110;2024-03-22T06:20:57;12.47;;;8.60;;
15132;SDS011;7667;51.232;17.110;2024-03-22T06:23:24;12.20;;;8.33;;
15132;SDS011;7667;51.232;17.110;2024-03-22T06:25:51;12.87;;;9.07;;
15132;SDS011;7667;51.232;17.110;2024-03-22T06:28:19;13.10;;;9.73;;
15132;SDS011;7667;51.232;17.110;2024-03-22T06:30:46;12.90;;;8.87;;
15132;SDS011;7667;51.232;17.110;2024-03-22T06:33:12;13.13;;;8.60;;
15132;SDS011;7667;51.232;17.110;2024-03-22T06:35:42;11.57;;;7.50;;
15132;SDS011;7667;51.232;17.110;2024-03-22T06:38:09;11.60;;;7.40;;
15132;SDS011;7667;51.232;17.110;2024-03-22T06:40:36;10.87;;;8.13;;
15132;SDS011;7667;51.232;17.110;2024-03-22T06:43:03;10.70;;;7.47;;
15132;SDS011;7667;51.232;17.110;2024-03-22T06:45:30;9.77;;;6.67;;
15132;SDS011;7667;51.232;17.110;2024-03-22T06:47:57;10.63;;;7.30;;
15132;SDS011;7667;51.232;17.110;2024-03-22T06:50:24;8.87;;;6.47;;
15132;SDS011;7667;51.232;17.110;2024-03-22T06:52:54;9.87;;;6.40;;
15132;SDS011;7667;51.232;17.110;2024-03-22T06:55:21;9.57;;;6.33;;
15132;SDS011;7667;51.232;17.110;2024-03-22T06:57:48;8.80;;;5.17;;
15132;SDS011;7667;51.232;17.110;2024-03-22T07:03:27;9.20;;;5.57;;
15132;SDS011;7667;51.232;17.110;2024-03-22T07:05:55;9.57;;;4.97;;
15132;SDS011;7667;51.232;17.110;2024-03-22T07:08:26;10.23;;;6.20;;
15132;SDS011;7667;51.232;17.110;2024-03-22T07:10:53;9.47;;;5.07;;
15132;SDS011;7667;51.232;17.110;2024-03-22T07:13:21;10.50;;;5.60;;
15132;SDS011;7667;51.232;17.110;2024-03-22T07:15:48;9.53;;;5.17;;
15132;SDS011;7667;51.232;17.110;2024-03-22T07:18:15;9.93;;;5.50;;
15132;SDS011;7667;51.232;17.110;2024-03-22T07:20:42;10.50;;;5.67;;
15132;SDS011;7667;51.232;17.110;2024-03-22T07:23:09;10.80;;;5.27;;
15132;SDS011;7667;51.232;17.110;2024-03-22T07:25:36;10.37;;;5.37;;
15132;SDS011;7667;51.232;17.110;2024-03-22T07:28:02;9.33;;;5.07;;
15132;SDS011;7667;51.232;17.110;2024-03-22T07:30:30;10.77;;;5.93;;
15132;SDS011;7667;51.232;17.110;2024-03-22T07:32:57;8.33;;;4.83;;
15132;SDS011;7667;51.232;17.110;2024-03-22T07:35:24;11.93;;;5.63;;
15132;SDS011;7667;51.232;17.110;2024-03-22T07:37:50;10.47;;;5.17;;
15132;SDS011;7667;51.232;17.110;2024-03-22T07:40:17;9.50;;;6.20;;
15132;SDS011;7667;51.232;17.110;2024-03-22T07:42:45;12.10;;;6.10;;
15132;SDS011;7667;51.232;17.110;2024-03-22T07:45:13;11.30;;;5.37;;
15132;SDS011;7667;51.232;17.110;2024-03-22T07:47:39;10.23;;;5.43;;
15132;SDS011;7667;51.232;17.110;2024-03-22T07:50:08;11.23;;;5.33;;
15132;SDS011;7667;51.232;17.110;2024-03-22T07:52:35;10.27;;;6.13;;
15132;SDS011;7667;51.232;17.110;2024-03-22T07:55:02;9.97;;;5.57;;
15132;SDS011;7667;51.232;17.110;2024-03-22T07:57:29;11.50;;;6.50;;
15132;SDS011;7667;51.232;17.110;2024-03-22T07:59:59;10.13;;;5.60;;
15132;SDS011;7667;51.232;17.110;2024-03-22T08:02:27;11.77;;;5.87;;
15132;SDS011;7667;51.232;17.110;2024-03-22T08:04:54;13.53;;;8.57;;
15132;SDS011;7667;51.232;17.110;2024-03-22T08:07:20;13.03;;;7.03;;
15132;SDS011;7667;51.232;17.110;2024-03-22T08:09:48;13.73;;;6.70;;
15132;SDS011;7667;51.232;17.110;2024-03-22T08:12:15;16.63;;;10.33;;
15132;SDS011;7667;51.232;17.110;2024-03-22T08:14:45;14.10;;;7.07;;
15132;SDS011;7667;51.232;17.110;2024-03-22T08:17:11;12.57;;;7.53;;
15132;SDS011;7667;51.232;17.110;2024-03-22T08:19:40;15.57;;;7.40;;
15132;SDS011;7667;51.232;17.110;2024-03-22T08:22:07;13.70;;;6.87;;
15132;SDS011;7667;51.232;17.110;2024-03-22T08:24:34;11.80;;;6.13;;
15132;SDS011;7667;51.232;17.110;2024-03-22T08:27:01;12.70;;;6.73;;
15132;SDS011;7667;51.232;17.110;2024-03-22T08:29:28;13.50;;;6.03;;
15132;SDS011;7667;51.232;17.110;2024-03-22T08:31:55;12.40;;;6.37;;
15132;SDS011;7667;51.232;17.110;2024-03-22T08:34:22;11.20;;;5.80;;
15132;SDS011;7667;51.232;17.110;2024-03-22T08:36:49;10.13;;;5.17;;
15132;SDS011;7667;51.232;17.110;2024-03-22T08:39:16;9.83;;;5.03;;
15132;SDS011;7667;51.232;17.110;2024-03-22T08:41:42;11.07;;;5.20;;
15132;SDS011;7667;51.232;17.110;2024-03-22T08:44:10;11.67;;;6.50;;
15132;SDS011;7667;51.232;17.110;2024-03-22T08:46:37;12.03;;;6.70;;
15132;SDS011;7667;51.232;17.110;2024-03-22T08:49:04;9.33;;;5.17;;
15132;SDS011;7667;51.232;17.110;2024-03-22T08:51:31;11.20;;;6.03;;
15132;SDS011;7667;51.232;17.110;2024-03-22T08:53:58;11.77;;;6.80;;
15132;SDS011;7667;51.232;17.110;2024-03-22T08:56:27;10.73;;;7.20;;
15132;SDS011;7667;51.232;17.110;2024-03-22T08:58:53;10.50;;;7.60;;
15132;SDS011;7667;51.232;17.110;2024-03-22T09:01:21;9.50;;;5.90;;
15132;SDS011;7667;51.232;17.110;2024-03-22T09:03:48;9.93;;;5.00;;
15132;SDS011;7667;51.232;17.110;2024-03-22T09:06:16;10.63;;;5.63;;
15132;SDS011;7667;51.232;17.110;2024-03-22T09:08:43;10.63;;;6.27;;
15132;SDS011;7667;51.232;17.110;2024-03-22T09:11:10;12.60;;;9.93;;
15132;SDS011;7667;51.232;17.110;2024-03-22T09:13:38;9.10;;;5.63;;
15132;SDS011;7667;51.232;17.110;2024-03-22T09:16:05;9.07;;;5.63;;
15132;SDS011;7667;51.232;17.110;2024-03-22T09:18:32;10.60;;;5.03;;
15132;SDS011;7667;51.232;17.110;2024-03-22T09:20:59;8.70;;;5.13;;
15132;SDS011;7667;51.232;17.110;2024-03-22T09:23:26;9.20;;;5.53;;
15132;SDS011;7667;51.232;17.110;2024-03-22T09:25:53;11.10;;;5.43;;
15132;SDS011;7667;51.232;17.110;2024-03-22T09:28:20;9.37;;;5.47;;
15132;SDS011;7667;51.232;17.110;2024-03-22T09:30:47;10.20;;;5.20;;
15132;SDS011;7667;51.232;17.110;2024-03-22T09:33:13;9.97;;;5.50;;
15132;SDS011;7667;51.232;17.110;2024-03-22T09:35:40;9.40;;;5.80;;
15132;SDS011;7667;51.232;17.110;2024-03-22T09:38:07;8.57;;;5.20;;
15132;SDS011;7667;51.232;17.110;2024-03-22T09:40:34;11.77;;;6.90;;
15132;SDS011;7667;51.232;17.110;2024-03-22T09:43:07;11.13;;;6.63;;
15132;SDS011;7667;51.232;17.110;2024-03-22T09:45:35;9.97;;;6.30;;
15132;SDS011;7667;51.232;17.110;2024-03-22T09:48:03;10.63;;;6.20;;
15132;SDS011;7667;51.232;17.110;2024-03-22T09:50:30;9.43;;;6.10;;
15132;SDS011;7667;51.232;17.110;2024-03-22T09:52:57;10.97;;;5.97;;
15132;SDS011;7667;51.232;17.110;2024-03-22T09:55:24;11.30;;;5.97;;
15132;SDS011;7667;51.232;17.110;2024-03-22T09:57:51;9.83;;;6.70;;
15132;SDS011;7667;51.232;17.110;2024-03-22T10:00:21;11.40;;;7.60;;
15132;SDS011;7667;51.232;17.110;2024-03-22T10:02:50;13.33;;;6.37;;
15132;SDS011;7667;51.232;17.110;2024-03-22T10:05:19;9.37;;;5.10;;
15132;SDS011;7667;51.232;17.110;2024-03-22T10:07:47;9.17;;;6.07;;
15132;SDS011;7667;51.232;17.110;2024-03-22T10:10:15;10.43;;;5.83;;
15132;SDS011;7667;51.232;17.110;2024-03-22T10:12:42;13.13;;;6.50;;
15132;SDS011;7667;51.232;17.110;2024-03-22T10:15:09;12.90;;;6.23;;
15132;SDS011;7667;51.232;17.110;2024-03-22T10:17:41;9.57;;;5.20;;
15132;SDS011;7667;51.232;17.110;2024-03-22T10:20:12;10.97;;;5.73;;
15132;SDS011;7667;51.232;17.110;2024-03-22T10:22:42;9.40;;;5.97;;
15132;SDS011;7667;51.232;17.110;2024-03-22T10:25:23;9.87;;;5.80;;
15132;SDS011;7667;51.232;17.110;2024-03-22T10:27:54;12.03;;;6.27;;
15132;SDS011;7667;51.232;17.110;2024-03-22T10:30:23;12.70;;;6.90;;
15132;SDS011;7667;51.232;17.110;2024-03-22T10:32:50;12.97;;;8.50;;
15132;SDS011;7667;51.232;17.110;2024-03-22T10:35:17;11.77;;;7.00;;
15132;SDS011;7667;51.232;17.110;2024-03-22T10:37:44;10.67;;;6.63;;
15132;SDS011;7667;51.232;17.110;2024-03-22T10:40:12;13.20;;;7.37;;
15132;SDS011;7667;51.232;17.110;2024-03-22T10:42:40;10.20;;;6.17;;
15132;SDS011;7667;51.232;17.110;2024-03-22T10:45:08;10.43;;;6.20;;
15132;SDS011;7667;51.232;17.110;2024-03-22T10:47:36;9.13;;;5.70;;
15132;SDS011;7667;51.232;17.110;2024-03-22T10:50:05;11.97;;;7.90;;
15132;SDS011;7667;51.232;17.110;2024-03-22T10:55:29;8.97;;;5.23;;
15132;SDS011;7667;51.232;17.110;2024-03-22T10:57:58;9.63;;;5.30;;
15132;SDS011;7667;51.232;17.110;2024-03-22T11:00:29;9.67;;;4.83;;
15132;SDS011;7667;51.232;17.110;2024-03-22T11:02:56;9.37;;;6.33;;
15132;SDS011;7667;51.232;17.110;2024-03-22T11:05:23;10.67;;;5.13;;
15132;SDS011;7667;51.232;17.110;2024-03-22T11:07:58;9.53;;;5.43;;
15132;SDS011;7667;51.232;17.110;2024-03-22T11:10:28;9.50;;;4.87;;
15132;SDS011;7667;51.232;17.110;2024-03-22T11:13:00;9.37;;;5.67;;
15132;SDS011;7667;51.232;17.110;2024-03-22T11:15:31;10.70;;;6.47;;
15132;SDS011;7667;51.232;17.110;2024-03-22T11:17:58;9.33;;;5.30;;
15132;SDS011;7667;51.232;17.110;2024-03-22T11:20:26;6.60;;;4.40;;
15132;SDS011;7667;51.232;17.110;2024-03-22T11:22:56;10.43;;;5.90;;
15132;SDS011;7667;51.232;17.110;2024-03-22T11:25:23;10.77;;;4.77;;
15132;SDS011;7667;51.232;17.110;2024-03-22T11:27:50;8.50;;;5.47;;
15132;SDS011;7667;51.232;17.110;2024-03-22T11:30:17;9.93;;;5.67;;
15132;SDS011;7667;51.232;17.110;2024-03-22T11:32:44;8.93;;;5.20;;
15132;SDS011;7667;51.232;17.110;2024-03-22T11:35:11;8.93;;;4.87;;
15132;SDS011;7667;51.232;17.110;2024-03-22T11:37:39;8.33;;;5.57;;
15132;SDS011;7667;51.232;17.110;2024-03-22T11:40:08;9.00;;;5.30;;
15132;SDS011;7667;51.232;17.110;2024-03-22T11:42:37;8.73;;;5.03;;
15132;SDS011;7667;51.232;17.110;2024-03-22T11:45:05;9.10;;;5.10;;
15132;SDS011;7667;51.232;17.110;2024-03-22T11:47:36;8.57;;;5.30;;
15132;SDS011;7667;51.232;17.110;2024-03-22T11:50:03;9.43;;;5.93;;
15132;SDS011;7667;51.232;17.110;2024-03-22T11:52:30;8.87;;;5.27;;
15132;SDS011;7667;51.232;17.110;2024-03-22T11:54:58;10.23;;;6.13;;
15132;SDS011;7667;51.232;17.110;2024-03-22T11:57:25;9.40;;;6.50;;
15132;SDS011;7667;51.232;17.110;2024-03-22T11:59:52;9.57;;;4.97;;
15132;SDS011;7667;51.232;17.110;2024-03-22T12:02:24;9.30;;;5.20;;
15132;SDS011;7667;51.232;17.110;2024-03-22T12:04:51;10.70;;;5.67;;
15132;SDS011;7667;51.232;17.110;2024-03-22T12:07:18;7.67;;;4.53;;
15132;SDS011;7667;51.232;17.110;2024-03-22T12:09:45;8.63;;;5.60;;
15132;SDS011;7667;51.232;17.110;2024-03-22T12:12:12;8.13;;;5.10;;
15132;SDS011;7667;51.232;17.110;2024-03-22T12:14:39;8.17;;;4.47;;
15132;SDS011;7667;51.232;17.110;2024-03-22T12:17:07;10.60;;;4.70;;
15132;SDS011;7667;51.232;17.110;2024-03-22T12:19:34;7.17;;;4.70;;
15132;SDS011;7667;51.232;17.110;2024-03-22T12:22:01;9.13;;;5.30;;
15132;SDS011;7667;51.232;17.110;2024-03-22T12:24:28;8.60;;;5.13;;
15132;SDS011;7667;51.232;17.110;2024-03-22T12:26:55;8.73;;;5.70;;
15132;SDS011;7667;51.232;17.110;2024-03-22T12:29:22;8.93;;;5.57;;
15132;SDS011;7667;51.232;17.110;2024-03-22T12:31:49;8.67;;;5.07;;
15132;SDS011;7667;51.232;17.110;2024-03-22T12:34:17;11.77;;;6.17;;
15132;SDS011;7667;51.232;17.110;2024-03-22T12:36:43;9.37;;;5.20;;
15132;SDS011;7667;51.232;17.110;2024-03-22T12:39:10;10.13;;;5.67;;
15132;SDS011;7667;51.232;17.110;2024-03-22T12:41:37;10.27;;;6.67;;
15132;SDS011;7667;51.232;17.110;2024-03-22T12:44:04;10.43;;;5.80;;
15132;SDS011;7667;51.232;17.110;2024-03-22T12:46:31;10.17;;;5.77;;
15132;SDS011;7667;51.232;17.110;2024-03-22T12:48:58;10.63;;;4.43;;
15132;SDS011;7667;51.232;17.110;2024-03-22T12:51:25;8.40;;;5.67;;
15132;SDS011;7667;51.232;17.110;2024-03-22T12:53:52;7.07;;;4.10;;
15132;SDS011;7667;51.232;17.110;2024-03-22T12:56:20;7.47;;;4.07;;
15132;SDS011;7667;51.232;17.110;2024-03-22T12:58:47;8.67;;;4.73;;
15132;SDS011;7667;51.232;17.110;2024-03-22T13:01:15;8.33;;;4.43;;
15132;SDS011;7667;51.232;17.110;2024-03-22T13:03:42;7.67;;;3.97;;
15132;SDS011;7667;51.232;17.110;2024-03-22T13:06:09;7.50;;;4.37;;
15132;SDS011;7667;51.232;17.110;2024-03-22T13:08:36;7.57;;;4.53;;
15132;SDS011;7667;51.232;17.110;2024-03-22T13:11:03;9.10;;;4.17;;
15132;SDS011;7667;51.232;17.110;2024-03-22T13:13:30;9.07;;;4.70;;
15132;SDS011;7667;51.232;17.110;2024-03-22T13:15:58;6.60;;;4.63;;
15132;SDS011;7667;51.232;17.110;2024-03-22T13:18:28;5.87;;;3.70;;
15132;SDS011;7667;51.232;17.110;2024-03-22T13:20:56;6.70;;;4.10;;
15132;SDS011;7667;51.232;17.110;2024-03-22T13:23:23;9.87;;;4.77;;
15132;SDS011;7667;51.232;17.110;2024-03-22T13:25:50;7.03;;;3.87;;
15132;SDS011;7667;51.232;17.110;2024-03-22T13:28:17;7.47;;;4.37;;
15132;SDS011;7667;51.232;17.110;2024-03-22T13:30:46;11.67;;;5.70;;
15132;SDS011;7667;51.232;17.110;2024-03-22T13:33:13;7.33;;;5.03;;
15132;SDS011;7667;51.232;17.110;2024-03-22T13:35:40;6.57;;;4.43;;
15132;SDS011;7667;51.232;17.110;2024-03-22T13:38:10;6.13;;;3.57;;
15132;SDS011;7667;51.232;17.110;2024-03-22T13:40:39;6.60;;;3.93;;
15132;SDS011;7667;51.232;17.110;2024-03-22T13:43:06;7.10;;;4.13;;
15132;SDS011;7667;51.232;17.110;2024-03-22T13:45:38;8.23;;;4.40;;
15132;SDS011;7667;51.232;17.110;2024-03-22T13:48:10;9.93;;;5.40;;
15132;SDS011;7667;51.232;17.110;2024-03-22T13:50:40;8.97;;;4.80;;
15132;SDS011;7667;51.232;17.110;2024-03-22T13:53:07;6.50;;;3.57;;
15132;SDS011;7667;51.232;17.110;2024-03-22T13:55:35;6.83;;;4.30;;
15132;SDS011;7667;51.232;17.110;2024-03-22T13:58:02;9.83;;;4.53;;
15132;SDS011;7667;51.232;17.110;2024-03-22T14:00:29;7.30;;;4.33;;
15132;SDS011;7667;51.232;17.110;2024-03-22T14:02:56;5.93;;;3.60;;
15132;SDS011;7667;51.232;17.110;2024-03-22T14:05:22;7.57;;;4.27;;
15132;SDS011;7667;51.232;17.110;2024-03-22T14:07:50;7.33;;;4.20;;
15132;SDS011;7667;51.232;17.110;2024-03-22T14:10:17;7.07;;;3.97;;
15132;SDS011;7667;51.232;17.110;2024-03-22T14:12:45;7.50;;;4.00;;
15132;SDS011;7667;51.232;17.110;2024-03-22T14:15:12;6.43;;;3.87;;
15132;SDS011;7667;51.232;17.110;2024-03-22T14:17:39;6.70;;;3.60;;
15132;SDS011;7667;51.232;17.110;2024-03-22T14:20:06;5.43;;;3.63;;
15132;SDS011;7667;51.232;17.110;2024-03-22T14:22:39;6.03;;;3.10;;
15132;SDS011;7667;51.232;17.110;2024-03-22T14:25:07;6.70;;;3.37;;
15132;SDS011;7667;51.232;17.110;2024-03-22T14:27:35;4.50;;;3.00;;
15132;SDS011;7667;51.232;17.110;2024-03-22T14:30:03;6.23;;;3.03;;
15132;SDS011;7667;51.232;17.110;2024-03-22T14:32:34;4.90;;;3.00;;
15132;SDS011;7667;51.232;17.110;2024-03-22T14:35:01;5.07;;;2.80;;
15132;SDS011;7667;51.232;17.110;2024-03-22T14:37:28;4.97;;;2.63;;
15132;SDS011;7667;51.232;17.110;2024-03-22T14:39:55;6.80;;;3.03;;
15132;SDS011;7667;51.232;17.110;2024-03-22T14:42:22;5.40;;;2.90;;
15132;SDS011;7667;51.232;17.110;2024-03-22T14:44:49;4.60;;;2.63;;
15132;SDS011;7667;51.232;17.110;2024-03-22T14:47:16;5.63;;;2.90;;
15132;SDS011;7667;51.232;17.110;2024-03-22T14:49:43;6.43;;;2.50;;